createdAt,value
2023-11-14T00:00:25.272Z,96312.00
2023-11-14T00:02:52.232Z,96318.00
2023-11-14T00:05:19.215Z,96316.00
2023-11-14T00:07:46.100Z,96308.00
2023-11-14T00:10:13.317Z,96319.00
2023-11-14T00:12:40.184Z,96314.00
2023-11-14T00:15:08.391Z,96307.00
2023-11-14T00:17:35.947Z,96319.00
2023-11-14T00:20:03.084Z,96312.00
2023-11-14T00:22:30.219Z,96314.00
2023-11-14T00:24:58.126Z,96321.00
2023-11-14T00:27:24.971Z,96313.00
2023-11-14T00:29:51.855Z,96313.00
2023-11-14T00:32:19.761Z,96321.00
2023-11-14T00:34:49.913Z,96323.00
2023-11-14T00:37:18.400Z,96331.00
2023-11-14T00:39:45.262Z,96327.00
2023-11-14T00:42:13.727Z,96331.00
2023-11-14T00:44:42.132Z,96300.00
2023-11-14T00:47:09.241Z,96306.00
2023-11-14T00:49:36.100Z,96309.00
2023-11-14T00:52:03.234Z,96329.00
2023-11-14T00:54:32.305Z,96327.00
2023-11-14T00:56:59.824Z,96322.00
2023-11-14T00:59:27.802Z,96334.00
2023-11-14T01:01:55.984Z,96331.00
2023-11-14T01:04:22.982Z,96321.00
2023-11-14T01:06:49.867Z,96336.00
2023-11-14T01:09:16.765Z,96328.00
2023-11-14T01:11:43.644Z,96327.00
2023-11-14T01:14:11.931Z,96335.00
2023-11-14T01:16:40.260Z,96345.00
2023-11-14T01:19:07.211Z,96328.00
2023-11-14T01:21:34.088Z,96320.00
2023-11-14T01:24:01.001Z,96344.00
2023-11-14T01:26:36.622Z,96335.00
2023-11-14T01:29:05.929Z,96325.00
2023-11-14T01:31:33.005Z,96331.00
2023-11-14T01:33:59.994Z,96324.00
2023-11-14T01:36:28.006Z,96309.00
2023-11-14T01:38:54.851Z,96334.00
2023-11-14T01:41:22.103Z,96337.00
2023-11-14T01:43:49.333Z,96324.00
2023-11-14T01:46:22.744Z,96327.00
2023-11-14T01:48:53.644Z,96333.00
2023-11-14T01:51:23.917Z,96342.00
2023-11-14T01:53:53.227Z,96320.00
2023-11-14T01:56:21.620Z,96337.00
2023-11-14T01:58:51.637Z,96329.00
2023-11-14T02:01:21.698Z,96324.00
2023-11-14T02:03:49.348Z,96326.00
2023-11-14T02:06:16.651Z,96334.00
2023-11-14T02:08:44.659Z,96322.00
2023-11-14T02:11:11.710Z,96315.00
2023-11-14T02:13:39.853Z,96343.00
2023-11-14T02:16:07.033Z,96331.00
2023-11-14T02:18:34.551Z,96336.00
2023-11-14T02:21:01.550Z,96333.00
2023-11-14T02:23:36.616Z,96327.00
2023-11-14T02:26:03.963Z,96326.00
2023-11-14T02:28:31.655Z,96328.00
2023-11-14T02:30:59.277Z,96330.00
2023-11-14T02:33:26.966Z,96352.00
2023-11-14T02:35:53.799Z,96345.00
2023-11-14T02:38:20.647Z,96349.00
2023-11-14T02:40:50.835Z,96352.00
2023-11-14T02:43:18.139Z,96346.00
2023-11-14T02:45:45.056Z,96363.00
2023-11-14T02:48:12.001Z,96349.00
2023-11-14T02:50:56.812Z,96368.00
2023-11-14T02:53:24.598Z,96366.00
2023-11-14T02:55:52.942Z,96380.00
2023-11-14T02:58:20.794Z,96356.00
2023-11-14T03:00:50.147Z,96375.00
2023-11-14T03:03:17.669Z,96386.00
2023-11-14T03:05:46.837Z,96368.00
2023-11-14T03:08:14.158Z,96375.00
2023-11-14T03:10:41.332Z,96386.00
2023-11-14T03:13:10.161Z,96379.00
2023-11-14T03:15:37.798Z,96387.00
2023-11-14T03:18:06.293Z,96375.00
2023-11-14T03:20:35.192Z,96378.00
2023-11-14T03:23:04.336Z,96377.00
2023-11-14T03:25:31.658Z,96379.00
2023-11-14T03:28:02.337Z,96381.00
2023-11-14T03:35:08.404Z,96379.00
2023-11-14T03:37:35.369Z,96385.00
2023-11-14T03:40:06.049Z,96372.00
2023-11-14T03:42:36.884Z,96376.00
2023-11-14T03:45:04.700Z,96398.00
2023-11-14T03:47:31.679Z,96405.00
2023-11-14T03:49:58.606Z,96392.00
2023-11-14T03:52:26.846Z,96400.00
2023-11-14T03:54:53.989Z,96394.00
2023-11-14T03:57:22.576Z,96401.00
2023-11-14T03:59:49.586Z,96388.00
2023-11-14T04:02:16.564Z,96391.00
2023-11-14T04:04:44.180Z,96389.00
2023-11-14T04:07:11.161Z,96391.00
2023-11-14T04:09:41.532Z,96395.00
2023-11-14T04:12:08.831Z,96397.00
2023-11-14T04:14:35.921Z,96402.00
2023-11-14T04:17:04.574Z,96407.00
2023-11-14T04:19:31.633Z,96398.00
2023-11-14T04:21:58.643Z,96396.00
2023-11-14T04:24:25.566Z,96404.00
2023-11-14T04:26:53.135Z,96390.00
2023-11-14T04:29:20.076Z,96400.00
2023-11-14T04:31:47.193Z,96409.00
2023-11-14T04:34:15.014Z,96392.00
2023-11-14T04:36:42.574Z,96394.00
2023-11-14T04:39:12.027Z,96383.00
2023-11-14T04:41:39.073Z,96385.00
2023-11-14T04:44:06.723Z,96382.00
2023-11-14T04:46:34.651Z,96375.00
2023-11-14T04:49:01.661Z,96384.00
2023-11-14T04:51:28.555Z,96386.00
2023-11-14T04:53:55.432Z,96372.00
2023-11-14T04:56:22.675Z,96390.00
2023-11-14T04:58:50.590Z,96390.00
2023-11-14T05:01:17.657Z,96391.00
2023-11-14T05:03:44.939Z,96387.00
2023-11-14T05:06:12.027Z,96404.00
2023-11-14T05:08:38.981Z,96398.00
2023-11-14T05:11:07.823Z,96387.00
2023-11-14T05:13:34.958Z,96394.00
2023-11-14T05:16:11.158Z,96387.00
2023-11-14T05:18:46.199Z,96389.00
2023-11-14T05:21:13.107Z,96390.00
2023-11-14T05:23:39.997Z,96399.00
2023-11-14T05:26:06.974Z,96385.00
2023-11-14T05:28:34.118Z,96386.00
2023-11-14T05:31:01.118Z,96387.00
2023-11-14T05:33:27.990Z,96371.00
2023-11-14T05:35:54.921Z,96386.00
2023-11-14T05:38:22.725Z,96392.00
2023-11-14T05:40:49.676Z,96387.00
2023-11-14T05:43:16.620Z,96419.00
2023-11-14T05:45:44.284Z,96389.00
2023-11-14T05:48:11.246Z,96387.00
2023-11-14T05:50:38.152Z,96413.00
2023-11-14T05:53:05.390Z,96424.00
2023-11-14T05:55:32.258Z,96410.00
2023-11-14T05:57:59.108Z,96410.00
2023-11-14T06:00:26.184Z,96412.00
2023-11-14T06:02:54.016Z,96413.00
2023-11-14T06:05:21.016Z,96405.00
2023-11-14T06:07:47.954Z,96412.00
2023-11-14T06:10:15.270Z,96419.00
2023-11-14T06:12:42.804Z,96425.00
2023-11-14T06:15:11.348Z,96413.00
2023-11-14T06:17:38.294Z,96418.00
2023-11-14T06:20:06.416Z,96437.00
2023-11-14T06:22:33.727Z,96437.00
2023-11-14T06:25:03.354Z,96437.00
2023-11-14T06:27:30.735Z,96452.00
2023-11-14T06:29:57.884Z,96439.00
2023-11-14T06:32:25.792Z,96440.00
2023-11-14T06:34:53.496Z,96436.00
2023-11-14T06:37:20.864Z,96430.00
2023-11-14T06:39:48.341Z,96456.00
2023-11-14T06:42:15.343Z,96469.00
2023-11-14T06:44:45.883Z,96493.00
2023-11-14T06:47:13.563Z,96465.00
2023-11-14T06:49:40.813Z,96444.00
2023-11-14T06:52:07.888Z,96463.00
2023-11-14T06:54:35.026Z,96442.00
2023-11-14T06:57:01.859Z,96452.00
2023-11-14T06:59:31.625Z,96461.00
2023-11-14T07:01:59.276Z,96464.00
2023-11-14T07:04:26.765Z,96470.00
2023-11-14T07:06:53.807Z,96457.00
2023-11-14T07:09:22.969Z,96471.00
2023-11-14T07:11:50.657Z,96465.00
2023-11-14T07:14:22.596Z,96487.00
2023-11-14T07:16:51.182Z,96485.00
2023-11-14T07:19:19.457Z,96459.00
2023-11-14T07:21:47.659Z,96447.00
2023-11-14T07:24:15.559Z,96468.00
2023-11-14T07:26:47.602Z,96472.00
2023-11-14T07:29:14.838Z,96490.00
2023-11-14T07:31:43.610Z,96499.00
2023-11-14T07:34:10.814Z,96526.00
2023-11-14T07:36:38.135Z,96534.00
2023-11-14T07:39:06.362Z,96530.00
2023-11-14T07:41:34.209Z,96518.00
2023-11-14T07:44:02.003Z,96503.00
2023-11-14T07:46:28.974Z,96510.00
2023-11-14T07:48:56.144Z,96508.00
2023-11-14T07:51:23.398Z,96491.00
2023-11-14T07:53:50.964Z,96501.00
2023-11-14T07:56:17.970Z,96504.00
2023-11-14T07:58:44.959Z,96475.00
2023-11-14T08:01:11.915Z,96488.00
2023-11-14T08:03:38.917Z,96466.00
2023-11-14T08:06:06.311Z,96470.00
2023-11-14T08:08:36.328Z,96472.00
2023-11-14T08:11:03.692Z,96461.00
2023-11-14T08:13:30.609Z,96454.00
2023-11-14T08:15:57.498Z,96463.00
2023-11-14T08:18:24.342Z,96455.00
2023-11-14T08:20:52.199Z,96443.00
2023-11-14T08:23:19.493Z,96444.00
2023-11-14T08:25:46.567Z,96445.00
2023-11-14T08:28:14.598Z,96456.00
2023-11-14T08:30:41.605Z,96463.00
2023-11-14T08:33:11.279Z,96462.00
2023-11-14T08:35:38.333Z,96475.00
2023-11-14T08:38:13.882Z,96498.00
2023-11-14T08:40:44.867Z,96483.00
2023-11-14T08:43:11.843Z,96489.00
2023-11-14T08:45:39.706Z,96506.00
2023-11-14T08:48:09.148Z,96505.00
2023-11-14T08:50:37.172Z,96513.00
2023-11-14T08:53:05.042Z,96520.00
2023-11-14T08:55:32.653Z,96504.00
2023-11-14T08:58:00.783Z,96504.00
2023-11-14T09:00:28.146Z,96484.00
2023-11-14T09:02:55.083Z,96484.00
2023-11-14T09:05:22.037Z,96485.00
2023-11-14T09:07:49.060Z,96477.00
2023-11-14T09:10:16.087Z,96465.00
2023-11-14T09:12:43.106Z,96477.00
2023-11-14T09:15:10.725Z,96474.00
2023-11-14T09:17:40.558Z,96473.00
2023-11-14T09:20:12.821Z,96492.00
2023-11-14T09:22:39.800Z,96504.00
2023-11-14T09:25:08.998Z,96511.00
2023-11-14T09:27:35.860Z,96510.00
2023-11-14T09:30:04.050Z,96496.00
2023-11-14T09:32:31.266Z,96508.00
2023-11-14T09:34:58.249Z,96489.00
2023-11-14T09:37:25.234Z,96487.00
2023-11-14T09:39:52.731Z,96492.00
2023-11-14T09:42:20.049Z,96489.00
2023-11-14T09:44:47.433Z,96474.00
2023-11-14T09:47:16.395Z,96477.00
2023-11-14T09:49:44.729Z,96467.00
2023-11-14T09:52:13.118Z,96475.00
2023-11-14T09:54:43.340Z,96477.00
2023-11-14T09:57:13.850Z,96500.00
2023-11-14T09:59:44.048Z,96513.00
2023-11-14T10:02:12.279Z,96529.00
2023-11-14T10:04:40.822Z,96541.00
2023-11-14T10:07:11.196Z,96525.00
2023-11-14T10:09:39.168Z,96531.00
2023-11-14T10:12:20.327Z,96538.00
2023-11-14T10:14:51.088Z,96534.00
2023-11-14T10:17:19.349Z,96547.00
2023-11-14T10:20:01.803Z,96534.00
2023-11-14T10:22:29.122Z,96544.00
2023-11-14T10:24:56.351Z,96534.00
2023-11-14T10:27:28.524Z,96531.00
2023-11-14T10:29:56.601Z,96516.00
2023-11-14T10:32:25.272Z,96531.00
2023-11-14T10:34:55.598Z,96525.00
2023-11-14T10:37:34.389Z,96529.00
2023-11-14T10:40:07.321Z,96505.00
2023-11-14T10:42:34.424Z,96509.00
2023-11-14T10:45:08.271Z,96489.00
2023-11-14T10:47:45.486Z,96489.00
2023-11-14T10:50:29.423Z,96486.00
2023-11-14T10:53:03.222Z,96474.00
2023-11-14T10:55:30.288Z,96477.00
2023-11-14T10:57:57.220Z,96472.00
2023-11-14T11:00:24.331Z,96474.00
2023-11-14T11:02:54.173Z,96473.00
2023-11-14T11:05:30.143Z,96457.00
2023-11-14T11:08:09.147Z,96479.00
2023-11-14T11:10:37.359Z,96453.00
2023-11-14T11:13:25.890Z,96452.00
2023-11-14T11:15:57.953Z,96436.00
2023-11-14T11:18:32.472Z,96438.00
2023-11-14T11:21:14.939Z,96435.00
2023-11-14T11:24:11.225Z,96430.00
2023-11-14T11:27:26.368Z,96441.00
2023-11-14T11:30:06.001Z,96439.00
2023-11-14T11:32:37.211Z,96431.00
2023-11-14T11:35:20.921Z,96442.00
2023-11-14T11:37:53.842Z,96436.00
2023-11-14T11:40:29.624Z,96441.00
2023-11-14T11:43:10.169Z,96431.00
2023-11-14T11:45:42.579Z,96438.00
2023-11-14T11:48:35.605Z,96451.00
2023-11-14T11:51:24.460Z,96446.00
2023-11-14T11:53:51.856Z,96453.00
2023-11-14T11:57:04.370Z,96428.00
2023-11-14T11:59:31.448Z,96436.00
2023-11-14T12:02:03.129Z,96429.00
2023-11-14T12:04:33.596Z,96437.00
2023-11-14T12:07:02.439Z,96436.00
2023-11-14T12:09:29.871Z,96435.00
2023-11-14T12:11:56.720Z,96433.00
2023-11-14T12:14:24.046Z,96430.00
2023-11-14T12:16:51.517Z,96440.00
2023-11-14T12:19:18.542Z,96438.00
2023-11-14T12:21:48.535Z,96431.00
2023-11-14T12:24:16.140Z,96434.00
2023-11-14T12:26:43.164Z,96436.00
2023-11-14T12:29:14.795Z,96437.00
2023-11-14T12:32:02.708Z,96446.00
2023-11-14T12:34:31.357Z,96439.00
2023-11-14T12:37:15.933Z,96435.00
2023-11-14T12:39:42.940Z,96433.00
2023-11-14T12:42:10.629Z,96433.00
2023-11-14T12:44:37.739Z,96426.00
2023-11-14T12:47:06.806Z,96424.00
2023-11-14T12:49:34.524Z,96407.00
2023-11-14T12:52:04.071Z,96414.00
2023-11-14T12:54:31.029Z,96404.00
2023-11-14T12:56:58.053Z,96401.00
2023-11-14T12:59:26.029Z,96400.00
2023-11-14T13:01:53.201Z,96409.00
2023-11-14T13:04:20.546Z,96401.00
2023-11-14T13:06:48.861Z,96396.00
2023-11-14T13:09:18.266Z,96404.00
2023-11-14T13:11:46.119Z,96400.00
2023-11-14T13:14:14.468Z,96375.00
2023-11-14T13:16:42.464Z,96372.00
2023-11-14T13:19:11.375Z,96379.00
2023-11-14T13:21:38.366Z,96358.00
2023-11-14T13:24:06.631Z,96367.00
2023-11-14T13:26:34.407Z,96371.00
2023-11-14T13:29:01.487Z,96357.00
2023-11-14T13:31:28.417Z,96346.00
2023-11-14T13:33:55.525Z,96341.00
2023-11-14T13:36:24.882Z,96332.00
2023-11-14T13:38:51.844Z,96344.00
2023-11-14T13:41:18.819Z,96338.00
2023-11-14T13:43:45.750Z,96324.00
2023-11-14T13:46:23.290Z,96323.00
2023-11-14T13:48:57.737Z,96311.00
2023-11-14T13:51:26.036Z,96310.00
2023-11-14T13:53:53.176Z,96322.00
2023-11-14T13:56:20.680Z,96315.00
2023-11-14T13:58:48.140Z,96320.00
2023-11-14T14:01:17.580Z,96305.00
2023-11-14T14:03:44.685Z,96310.00
2023-11-14T14:06:11.665Z,96300.00
2023-11-14T14:08:38.728Z,96296.00
2023-11-14T14:11:09.962Z,96296.00
2023-11-14T14:13:37.506Z,96298.00
2023-11-14T14:16:05.367Z,96300.00
2023-11-14T14:18:33.006Z,96296.00
2023-11-14T14:21:04.927Z,96287.00
2023-11-14T14:23:32.937Z,96284.00
2023-11-14T14:26:05.806Z,96289.00
2023-11-14T14:28:36.121Z,96286.00
2023-11-14T14:31:07.730Z,96283.00
2023-11-14T14:33:34.976Z,96276.00
2023-11-14T14:36:02.195Z,96281.00
2023-11-14T14:38:29.183Z,96269.00
2023-11-14T14:40:56.170Z,96270.00
2023-11-14T14:43:24.873Z,96262.00
2023-11-14T14:45:55.278Z,96264.00
2023-11-14T14:48:24.053Z,96262.00
2023-11-14T14:50:55.093Z,96262.00
2023-11-14T14:53:24.246Z,96251.00
2023-11-14T14:55:51.726Z,96260.00
2023-11-14T14:58:20.953Z,96247.00
2023-11-14T15:00:48.432Z,96248.00
2023-11-14T15:03:21.201Z,96235.00
2023-11-14T15:05:52.709Z,96239.00
2023-11-14T15:08:20.965Z,96230.00
2023-11-14T15:10:49.535Z,96234.00
2023-11-14T15:13:16.583Z,96217.00
2023-11-14T15:15:44.513Z,96229.00
2023-11-14T15:18:11.476Z,96219.00
2023-11-14T15:20:38.629Z,96216.00
2023-11-14T15:23:05.533Z,96211.00
2023-11-14T15:25:34.740Z,96209.00
2023-11-14T15:28:01.870Z,96202.00
2023-11-14T15:30:28.835Z,96205.00
2023-11-14T15:32:57.659Z,96189.00
2023-11-14T15:35:25.792Z,96184.00
2023-11-14T15:37:52.744Z,96193.00
2023-11-14T15:40:19.769Z,96181.00
2023-11-14T15:42:47.243Z,96184.00
2023-11-14T15:45:14.137Z,96184.00
2023-11-14T15:47:41.035Z,96174.00
2023-11-14T15:50:08.404Z,96173.00
2023-11-14T15:52:35.336Z,96181.00
2023-11-14T15:55:05.793Z,96169.00
2023-11-14T15:57:33.497Z,96173.00
2023-11-14T16:00:00.562Z,96171.00
2023-11-14T16:02:27.496Z,96168.00
2023-11-14T16:04:54.413Z,96176.00
2023-11-14T16:07:21.274Z,96184.00
2023-11-14T16:09:48.116Z,96195.00
2023-11-14T16:12:15.228Z,96183.00
2023-11-14T16:14:42.054Z,96177.00
2023-11-14T16:17:09.177Z,96192.00
2023-11-14T16:19:38.090Z,96179.00
2023-11-14T16:22:06.525Z,96175.00
2023-11-14T16:24:33.891Z,96179.00
2023-11-14T16:27:01.768Z,96180.00
2023-11-14T16:29:29.133Z,96180.00
2023-11-14T16:31:56.595Z,96175.00
2023-11-14T16:34:23.909Z,96179.00
2023-11-14T16:36:50.926Z,96176.00
2023-11-14T16:39:18.008Z,96180.00
2023-11-14T16:41:45.109Z,96166.00
2023-11-14T16:44:12.958Z,96177.00
2023-11-14T16:46:40.226Z,96168.00
2023-11-14T16:49:07.545Z,96177.00
2023-11-14T16:51:34.770Z,96156.00
2023-11-14T16:54:02.758Z,96165.00
2023-11-14T16:56:30.092Z,96146.00
2023-11-14T16:58:59.034Z,96158.00
2023-11-14T17:01:27.462Z,96148.00
2023-11-14T17:03:58.539Z,96142.00
2023-11-14T17:06:25.551Z,96144.00
2023-11-14T17:08:52.628Z,96148.00
2023-11-14T17:11:19.567Z,96141.00
2023-11-14T17:13:46.558Z,96134.00
2023-11-14T17:16:14.308Z,96148.00
2023-11-14T17:18:41.431Z,96138.00
2023-11-14T17:21:08.320Z,96125.00
2023-11-14T17:23:38.421Z,96133.00
2023-11-14T17:26:07.183Z,96119.00
2023-11-14T17:28:37.200Z,96112.00
2023-11-14T17:31:04.655Z,96109.00
2023-11-14T17:33:31.523Z,96112.00
2023-11-14T17:35:58.557Z,96096.00
2023-11-14T17:38:25.443Z,96104.00
2023-11-14T17:40:52.877Z,96089.00
2023-11-14T17:43:20.221Z,96097.00
2023-11-14T17:45:47.115Z,96082.00
2023-11-14T17:48:14.045Z,96085.00
2023-11-14T17:50:41.223Z,96087.00
2023-11-14T17:53:08.587Z,96085.00
2023-11-14T17:55:35.760Z,96069.00
2023-11-14T17:58:05.622Z,96074.00
2023-11-14T18:00:32.917Z,96077.00
2023-11-14T18:03:01.539Z,96061.00
2023-11-14T18:05:29.530Z,96057.00
2023-11-14T18:07:57.415Z,96049.00
2023-11-14T18:10:24.522Z,96039.00
2023-11-14T18:12:51.401Z,96032.00
2023-11-14T18:15:18.974Z,96024.00
2023-11-14T18:17:46.484Z,96024.00
2023-11-14T18:20:13.786Z,96027.00
2023-11-14T18:22:41.085Z,96012.00
2023-11-14T18:25:09.298Z,96009.00
2023-11-14T18:27:36.322Z,96013.00
2023-11-14T18:30:05.191Z,96012.00
2023-11-14T18:32:33.738Z,96005.00
2023-11-14T18:35:02.453Z,96015.00
2023-11-14T18:37:29.478Z,95999.00
2023-11-14T18:39:56.667Z,96008.00
2023-11-14T18:42:23.600Z,95991.00
2023-11-14T18:45:01.979Z,95992.00
2023-11-14T18:47:38.465Z,95999.00
2023-11-14T18:50:09.458Z,95990.00
2023-11-14T18:52:36.965Z,95977.00
2023-11-14T18:55:05.165Z,95996.00
2023-11-14T18:57:34.278Z,95974.00
2023-11-14T19:00:01.274Z,95986.00
2023-11-14T19:02:30.845Z,95971.00
2023-11-14T19:04:57.887Z,95965.00
2023-11-14T19:07:27.662Z,95963.00
2023-11-14T19:09:55.571Z,95975.00
2023-11-14T19:12:24.332Z,95975.00
2023-11-14T19:14:52.566Z,95987.00
2023-11-14T19:17:20.446Z,95962.00
2023-11-14T19:19:47.972Z,95985.00
2023-11-14T19:22:41.697Z,95972.00
2023-11-14T19:27:32.134Z,95950.00
2023-11-14T19:29:59.189Z,95952.00
2023-11-14T19:32:26.815Z,95966.00
2023-11-14T19:34:55.148Z,95952.00
2023-11-14T19:37:22.541Z,95959.00
2023-11-14T19:39:49.777Z,95973.00
2023-11-14T19:42:19.302Z,95960.00
2023-11-14T19:44:46.533Z,95985.00
2023-11-14T19:47:13.622Z,95988.00
2023-11-14T19:49:45.202Z,95988.00
2023-11-14T19:52:15.685Z,95982.00
2023-11-14T19:54:44.916Z,95993.00
2023-11-14T19:57:11.823Z,95995.00
2023-11-14T19:59:38.709Z,95982.00
2023-11-14T20:02:07.226Z,96009.00
2023-11-14T20:04:34.334Z,96005.00
2023-11-14T20:07:01.234Z,96002.00
2023-11-14T20:09:29.757Z,96015.00
2023-11-14T20:11:57.748Z,96018.00
2023-11-14T20:14:24.770Z,96027.00
2023-11-14T20:16:51.715Z,96036.00
2023-11-14T20:19:19.432Z,96047.00
2023-11-14T20:21:47.022Z,96069.00
2023-11-14T20:24:14.107Z,96053.00
2023-11-14T20:26:43.717Z,96085.00
2023-11-14T20:29:10.784Z,96089.00
2023-11-14T20:31:37.939Z,96104.00
2023-11-14T20:34:04.897Z,96116.00
2023-11-14T20:36:32.577Z,96125.00
2023-11-14T20:39:00.531Z,96129.00
2023-11-14T20:41:28.119Z,96145.00
2023-11-14T20:43:56.831Z,96162.00
2023-11-14T20:46:24.544Z,96160.00
2023-11-14T20:48:51.796Z,96175.00
2023-11-14T20:51:25.136Z,96171.00
2023-11-14T20:54:02.053Z,96188.00
2023-11-14T20:56:30.714Z,96198.00
2023-11-14T20:58:57.665Z,96208.00
2023-11-14T21:01:26.648Z,96204.00
2023-11-14T21:03:54.888Z,96222.00
2023-11-14T21:06:22.050Z,96220.00
2023-11-14T21:08:49.266Z,96253.00
2023-11-14T21:11:16.395Z,96255.00
2023-11-14T21:13:43.426Z,96246.00
2023-11-14T21:16:13.098Z,96272.00
2023-11-14T21:18:41.756Z,96276.00
2023-11-14T21:21:09.444Z,96282.00
2023-11-14T21:23:39.766Z,96294.00
2023-11-14T21:26:09.434Z,96295.00
2023-11-14T21:28:37.500Z,96287.00
2023-11-14T21:31:08.272Z,96299.00
2023-11-14T21:33:36.912Z,96301.00
2023-11-14T21:36:10.152Z,96322.00
2023-11-14T21:38:38.139Z,96320.00
2023-11-14T21:41:05.541Z,96320.00
2023-11-14T21:43:32.589Z,96318.00
2023-11-14T21:45:59.470Z,96317.00
2023-11-14T21:48:26.970Z,96339.00
2023-11-14T21:50:55.139Z,96342.00
2023-11-14T21:53:22.242Z,96339.00
2023-11-14T21:55:50.315Z,96351.00
2023-11-14T21:58:17.196Z,96365.00
2023-11-14T22:00:44.123Z,96357.00
2023-11-14T22:03:11.190Z,96359.00
2023-11-14T22:05:38.199Z,96371.00
2023-11-14T22:08:05.489Z,96378.00
2023-11-14T22:10:32.437Z,96385.00
2023-11-14T22:12:59.578Z,96389.00
2023-11-14T22:15:26.479Z,96400.00
2023-11-14T22:17:53.496Z,96402.00
2023-11-14T22:20:20.499Z,96403.00
2023-11-14T22:22:47.622Z,96416.00
2023-11-14T22:25:14.607Z,96418.00
2023-11-14T22:27:42.377Z,96415.00
2023-11-14T22:30:10.005Z,96438.00
2023-11-14T22:32:36.986Z,96430.00
2023-11-14T22:35:05.023Z,96441.00
2023-11-14T22:37:31.961Z,96450.00
2023-11-14T22:39:58.971Z,96441.00
2023-11-14T22:42:26.014Z,96453.00
2023-11-14T22:44:54.305Z,96463.00
2023-11-14T22:47:21.310Z,96461.00
2023-11-14T22:49:48.158Z,96473.00
2023-11-14T22:52:15.034Z,96472.00
2023-11-14T22:54:42.934Z,96479.00
2023-11-14T22:57:10.217Z,96479.00
2023-11-14T22:59:39.408Z,96488.00
2023-11-14T23:02:06.402Z,96514.00
2023-11-14T23:04:33.283Z,96514.00
2023-11-14T23:07:00.281Z,96499.00
2023-11-14T23:09:27.350Z,96512.00
2023-11-14T23:11:56.405Z,96525.00
2023-11-14T23:14:24.397Z,96514.00
2023-11-14T23:16:51.571Z,96529.00
2023-11-14T23:19:20.367Z,96523.00
2023-11-14T23:21:54.937Z,96538.00
2023-11-14T23:24:25.105Z,96550.00
2023-11-14T23:26:53.632Z,96555.00
2023-11-14T23:29:20.755Z,96561.00
2023-11-14T23:31:47.684Z,96560.00
2023-11-14T23:34:15.740Z,96561.00
2023-11-14T23:36:42.952Z,96565.00
2023-11-14T23:39:09.836Z,96583.00
2023-11-14T23:41:37.109Z,96582.00
2023-11-14T23:44:04.757Z,96578.00
2023-11-14T23:46:31.888Z,96579.00
2023-11-14T23:48:58.797Z,96586.00
2023-11-14T23:51:25.999Z,96602.00
2023-11-14T23:53:53.690Z,96595.00
2023-11-14T23:56:20.927Z,96598.00
2023-11-14T23:58:47.785Z,96606.00
